sensor_id;sensor_type;location;lat;lon;timestamp;P1;durP1;ratioP1;P2;durP2;ratioP2
72413;SDS011;60995;52.154;4.498;2023-08-06T00:00:37;29.67;;;20.15;;
72413;SDS011;60995;52.154;4.498;2023-08-06T00:02:54;28.80;;;17.45;;
72413;SDS011;60995;52.154;4.498;2023-08-06T00:05:10;31.02;;;19.15;;
72413;SDS011;60995;52.154;4.498;2023-08-06T00:07:26;27.08;;;18.70;;
72413;SDS011;60995;52.154;4.498;2023-08-06T00:09:43;28.42;;;18.45;;
72413;SDS011;60995;52.154;4.498;2023-08-06T00:11:59;26.75;;;17.30;;
72413;SDS011;60995;52.154;4.498;2023-08-06T00:14:15;28.13;;;18.08;;
72413;SDS011;60995;52.154;4.498;2023-08-06T00:16:33;25.63;;;17.13;;
72413;SDS011;60995;52.154;4.498;2023-08-06T00:18:49;25.50;;;17.70;;
72413;SDS011;60995;52.154;4.498;2023-08-06T00:21:05;25.80;;;17.65;;
72413;SDS011;60995;52.154;4.498;2023-08-06T00:23:22;28.42;;;19.35;;
72413;SDS011;60995;52.154;4.498;2023-08-06T00:25:38;23.48;;;16.27;;
72413;SDS011;60995;52.154;4.498;2023-08-06T00:27:54;23.73;;;15.77;;
72413;SDS011;60995;52.154;4.498;2023-08-06T00:30:12;21.70;;;15.40;;
72413;SDS011;60995;52.154;4.498;2023-08-06T00:32:28;24.70;;;16.17;;
72413;SDS011;60995;52.154;4.498;2023-08-06T00:34:44;27.83;;;16.55;;
72413;SDS011;60995;52.154;4.498;2023-08-06T00:37:00;22.63;;;15.10;;
72413;SDS011;60995;52.154;4.498;2023-08-06T00:39:17;23.90;;;16.02;;
72413;SDS011;60995;52.154;4.498;2023-08-06T00:41:33;25.25;;;16.45;;
72413;SDS011;60995;52.154;4.498;2023-08-06T00:43:49;28.92;;;18.17;;
72413;SDS011;60995;52.154;4.498;2023-08-06T00:46:05;27.02;;;16.90;;
72413;SDS011;60995;52.154;4.498;2023-08-06T00:48:22;25.95;;;18.08;;
72413;SDS011;60995;52.154;4.498;2023-08-06T00:50:38;25.40;;;17.92;;
72413;SDS011;60995;52.154;4.498;2023-08-06T00:52:56;26.40;;;18.20;;
72413;SDS011;60995;52.154;4.498;2023-08-06T00:55:15;27.42;;;18.27;;
72413;SDS011;60995;52.154;4.498;2023-08-06T00:57:31;31.73;;;18.15;;
72413;SDS011;60995;52.154;4.498;2023-08-06T00:59:47;30.85;;;17.92;;
72413;SDS011;60995;52.154;4.498;2023-08-06T01:02:05;27.42;;;17.45;;
72413;SDS011;60995;52.154;4.498;2023-08-06T01:04:22;27.23;;;17.00;;
72413;SDS011;60995;52.154;4.498;2023-08-06T01:06:48;24.38;;;16.52;;
72413;SDS011;60995;52.154;4.498;2023-08-06T01:17:23;27.50;;;17.20;;
72413;SDS011;60995;52.154;4.498;2023-08-06T01:19:42;26.05;;;16.17;;
72413;SDS011;60995;52.154;4.498;2023-08-06T01:21:58;25.70;;;16.58;;
72413;SDS011;60995;52.154;4.498;2023-08-06T01:24:14;22.67;;;14.88;;
72413;SDS011;60995;52.154;4.498;2023-08-06T01:26:36;22.58;;;14.02;;
72413;SDS011;60995;52.154;4.498;2023-08-06T01:31:47;18.15;;;12.05;;
72413;SDS011;60995;52.154;4.498;2023-08-06T01:34:09;20.52;;;12.75;;
72413;SDS011;60995;52.154;4.498;2023-08-06T01:36:33;19.50;;;11.52;;
72413;SDS011;60995;52.154;4.498;2023-08-06T01:38:53;18.02;;;11.02;;
72413;SDS011;60995;52.154;4.498;2023-08-06T01:41:10;19.10;;;11.38;;
72413;SDS011;60995;52.154;4.498;2023-08-06T01:43:26;18.52;;;11.55;;
72413;SDS011;60995;52.154;4.498;2023-08-06T01:45:42;19.63;;;11.85;;
72413;SDS011;60995;52.154;4.498;2023-08-06T01:47:58;17.38;;;11.10;;
72413;SDS011;60995;52.154;4.498;2023-08-06T01:50:15;17.55;;;11.43;;
72413;SDS011;60995;52.154;4.498;2023-08-06T01:52:31;17.50;;;11.65;;
72413;SDS011;60995;52.154;4.498;2023-08-06T01:54:47;16.50;;;10.60;;
72413;SDS011;60995;52.154;4.498;2023-08-06T01:57:03;16.75;;;10.30;;
72413;SDS011;60995;52.154;4.498;2023-08-06T01:59:20;18.45;;;9.93;;
72413;SDS011;60995;52.154;4.498;2023-08-06T02:01:36;16.50;;;9.43;;
72413;SDS011;60995;52.154;4.498;2023-08-06T02:03:53;16.80;;;10.13;;
72413;SDS011;60995;52.154;4.498;2023-08-06T02:06:09;15.10;;;9.85;;
72413;SDS011;60995;52.154;4.498;2023-08-06T02:08:26;15.82;;;9.68;;
72413;SDS011;60995;52.154;4.498;2023-08-06T02:10:43;16.30;;;9.75;;
72413;SDS011;60995;52.154;4.498;2023-08-06T02:13:01;15.82;;;9.68;;
72413;SDS011;60995;52.154;4.498;2023-08-06T02:15:17;15.90;;;10.38;;
72413;SDS011;60995;52.154;4.498;2023-08-06T02:17:33;17.40;;;10.20;;
72413;SDS011;60995;52.154;4.498;2023-08-06T02:19:49;18.98;;;11.13;;
72413;SDS011;60995;52.154;4.498;2023-08-06T02:22:05;15.88;;;10.55;;
72413;SDS011;60995;52.154;4.498;2023-08-06T02:24:22;19.13;;;10.57;;
72413;SDS011;60995;52.154;4.498;2023-08-06T02:26:38;18.73;;;11.60;;
72413;SDS011;60995;52.154;4.498;2023-08-06T02:28:54;17.38;;;10.90;;
72413;SDS011;60995;52.154;4.498;2023-08-06T02:31:10;21.23;;;11.30;;
72413;SDS011;60995;52.154;4.498;2023-08-06T02:33:26;22.70;;;12.90;;
72413;SDS011;60995;52.154;4.498;2023-08-06T02:35:43;18.70;;;11.98;;
72413;SDS011;60995;52.154;4.498;2023-08-06T02:37:59;19.60;;;12.35;;
72413;SDS011;60995;52.154;4.498;2023-08-06T02:40:15;20.52;;;12.07;;
72413;SDS011;60995;52.154;4.498;2023-08-06T02:42:32;20.08;;;11.43;;
72413;SDS011;60995;52.154;4.498;2023-08-06T02:44:49;16.48;;;9.93;;
72413;SDS011;60995;52.154;4.498;2023-08-06T02:47:06;16.42;;;10.43;;
72413;SDS011;60995;52.154;4.498;2023-08-06T02:49:22;14.50;;;10.18;;
72413;SDS011;60995;52.154;4.498;2023-08-06T02:51:38;15.50;;;10.77;;
72413;SDS011;60995;52.154;4.498;2023-08-06T02:53:54;15.63;;;10.73;;
72413;SDS011;60995;52.154;4.498;2023-08-06T02:56:10;17.45;;;11.55;;
72413;SDS011;60995;52.154;4.498;2023-08-06T02:58:27;19.10;;;12.82;;
72413;SDS011;60995;52.154;4.498;2023-08-06T03:00:43;20.42;;;14.75;;
72413;SDS011;60995;52.154;4.498;2023-08-06T03:03:00;19.48;;;14.23;;
72413;SDS011;60995;52.154;4.498;2023-08-06T03:05:16;19.13;;;13.80;;
72413;SDS011;60995;52.154;4.498;2023-08-06T03:07:32;18.25;;;12.68;;
72413;SDS011;60995;52.154;4.498;2023-08-06T03:09:50;18.88;;;13.00;;
72413;SDS011;60995;52.154;4.498;2023-08-06T03:12:07;19.42;;;13.57;;
72413;SDS011;60995;52.154;4.498;2023-08-06T03:14:24;18.85;;;13.98;;
72413;SDS011;60995;52.154;4.498;2023-08-06T03:16:40;19.88;;;14.68;;
72413;SDS011;60995;52.154;4.498;2023-08-06T03:18:56;21.67;;;15.05;;
72413;SDS011;60995;52.154;4.498;2023-08-06T03:21:12;23.42;;;16.48;;
72413;SDS011;60995;52.154;4.498;2023-08-06T03:23:32;26.02;;;18.60;;
72413;SDS011;60995;52.154;4.498;2023-08-06T03:25:48;30.65;;;19.63;;
72413;SDS011;60995;52.154;4.498;2023-08-06T03:28:04;30.35;;;20.63;;
72413;SDS011;60995;52.154;4.498;2023-08-06T03:30:20;27.95;;;19.30;;
72413;SDS011;60995;52.154;4.498;2023-08-06T03:32:37;21.23;;;15.68;;
72413;SDS011;60995;52.154;4.498;2023-08-06T03:34:53;21.80;;;15.00;;
72413;SDS011;60995;52.154;4.498;2023-08-06T03:37:09;17.42;;;8.75;;
72413;SDS011;60995;52.154;4.498;2023-08-06T03:39:25;15.60;;;6.45;;
72413;SDS011;60995;52.154;4.498;2023-08-06T03:41:42;12.65;;;5.75;;
72413;SDS011;60995;52.154;4.498;2023-08-06T03:43:58;10.75;;;4.55;;
72413;SDS011;60995;52.154;4.498;2023-08-06T03:46:14;12.13;;;4.38;;
72413;SDS011;60995;52.154;4.498;2023-08-06T03:48:30;12.70;;;4.43;;
72413;SDS011;60995;52.154;4.498;2023-08-06T03:50:46;10.18;;;3.90;;
72413;SDS011;60995;52.154;4.498;2023-08-06T03:53:03;15.98;;;3.80;;
72413;SDS011;60995;52.154;4.498;2023-08-06T03:55:19;7.95;;;3.50;;
72413;SDS011;60995;52.154;4.498;2023-08-06T03:57:35;9.50;;;3.45;;
72413;SDS011;60995;52.154;4.498;2023-08-06T03:59:52;10.50;;;3.50;;
72413;SDS011;60995;52.154;4.498;2023-08-06T04:02:08;20.00;;;4.05;;
72413;SDS011;60995;52.154;4.498;2023-08-06T04:04:24;14.02;;;4.88;;
72413;SDS011;60995;52.154;4.498;2023-08-06T04:06:40;11.45;;;4.05;;
72413;SDS011;60995;52.154;4.498;2023-08-06T04:08:57;11.80;;;4.93;;
72413;SDS011;60995;52.154;4.498;2023-08-06T04:11:13;10.52;;;4.57;;
72413;SDS011;60995;52.154;4.498;2023-08-06T04:13:32;9.27;;;4.07;;
72413;SDS011;60995;52.154;4.498;2023-08-06T04:15:48;7.88;;;3.90;;
72413;SDS011;60995;52.154;4.498;2023-08-06T04:18:05;15.32;;;5.18;;
72413;SDS011;60995;52.154;4.498;2023-08-06T04:20:21;10.50;;;3.63;;
72413;SDS011;60995;52.154;4.498;2023-08-06T04:22:37;9.65;;;4.07;;
72413;SDS011;60995;52.154;4.498;2023-08-06T04:24:53;10.20;;;4.22;;
72413;SDS011;60995;52.154;4.498;2023-08-06T04:27:10;12.35;;;4.00;;
72413;SDS011;60995;52.154;4.498;2023-08-06T04:29:28;18.60;;;8.23;;
72413;SDS011;60995;52.154;4.498;2023-08-06T04:31:44;10.07;;;4.63;;
72413;SDS011;60995;52.154;4.498;2023-08-06T04:34:01;9.18;;;4.05;;
72413;SDS011;60995;52.154;4.498;2023-08-06T04:36:17;19.48;;;8.40;;
72413;SDS011;60995;52.154;4.498;2023-08-06T04:38:33;12.52;;;4.28;;
72413;SDS011;60995;52.154;4.498;2023-08-06T04:40:50;20.05;;;7.45;;
72413;SDS011;60995;52.154;4.498;2023-08-06T04:43:06;9.00;;;4.30;;
72413;SDS011;60995;52.154;4.498;2023-08-06T04:45:22;10.57;;;5.15;;
72413;SDS011;60995;52.154;4.498;2023-08-06T04:47:40;10.95;;;4.53;;
72413;SDS011;60995;52.154;4.498;2023-08-06T04:49:56;11.23;;;5.43;;
72413;SDS011;60995;52.154;4.498;2023-08-06T04:52:12;9.18;;;4.45;;
72413;SDS011;60995;52.154;4.498;2023-08-06T04:54:28;11.52;;;4.75;;
72413;SDS011;60995;52.154;4.498;2023-08-06T04:56:44;10.27;;;4.55;;
72413;SDS011;60995;52.154;4.498;2023-08-06T04:59:01;14.23;;;6.00;;
72413;SDS011;60995;52.154;4.498;2023-08-06T05:01:17;11.77;;;5.18;;
72413;SDS011;60995;52.154;4.498;2023-08-06T05:03:33;11.18;;;4.75;;
72413;SDS011;60995;52.154;4.498;2023-08-06T05:05:49;13.45;;;4.60;;
72413;SDS011;60995;52.154;4.498;2023-08-06T05:08:06;9.05;;;4.22;;
72413;SDS011;60995;52.154;4.498;2023-08-06T05:10:24;12.05;;;4.78;;
72413;SDS011;60995;52.154;4.498;2023-08-06T05:12:41;11.68;;;5.35;;
72413;SDS011;60995;52.154;4.498;2023-08-06T05:14:58;11.73;;;4.50;;
72413;SDS011;60995;52.154;4.498;2023-08-06T05:17:14;11.32;;;4.90;;
72413;SDS011;60995;52.154;4.498;2023-08-06T05:19:30;10.82;;;4.78;;
72413;SDS011;60995;52.154;4.498;2023-08-06T05:21:46;10.50;;;4.60;;
72413;SDS011;60995;52.154;4.498;2023-08-06T05:24:03;10.80;;;4.85;;
72413;SDS011;60995;52.154;4.498;2023-08-06T05:26:19;10.43;;;5.45;;
72413;SDS011;60995;52.154;4.498;2023-08-06T05:28:36;12.15;;;4.88;;
72413;SDS011;60995;52.154;4.498;2023-08-06T05:30:52;12.82;;;5.03;;
72413;SDS011;60995;52.154;4.498;2023-08-06T05:33:08;10.43;;;4.18;;
72413;SDS011;60995;52.154;4.498;2023-08-06T05:35:25;11.13;;;5.05;;
72413;SDS011;60995;52.154;4.498;2023-08-06T05:37:41;13.73;;;6.47;;
72413;SDS011;60995;52.154;4.498;2023-08-06T05:39:57;13.57;;;4.50;;
72413;SDS011;60995;52.154;4.498;2023-08-06T05:42:13;11.82;;;5.05;;
72413;SDS011;60995;52.154;4.498;2023-08-06T05:44:30;12.55;;;5.45;;
72413;SDS011;60995;52.154;4.498;2023-08-06T05:46:46;13.57;;;4.90;;
72413;SDS011;60995;52.154;4.498;2023-08-06T05:49:02;11.75;;;4.57;;
72413;SDS011;60995;52.154;4.498;2023-08-06T05:51:19;14.95;;;5.55;;
72413;SDS011;60995;52.154;4.498;2023-08-06T05:53:36;13.48;;;4.78;;
72413;SDS011;60995;52.154;4.498;2023-08-06T05:55:52;11.90;;;5.22;;
72413;SDS011;60995;52.154;4.498;2023-08-06T05:58:08;13.18;;;4.18;;
72413;SDS011;60995;52.154;4.498;2023-08-06T06:00:24;10.30;;;3.60;;
72413;SDS011;60995;52.154;4.498;2023-08-06T06:02:41;9.20;;;3.58;;
72413;SDS011;60995;52.154;4.498;2023-08-06T06:04:57;14.00;;;5.18;;
72413;SDS011;60995;52.154;4.498;2023-08-06T06:07:13;10.40;;;4.47;;
72413;SDS011;60995;52.154;4.498;2023-08-06T06:09:30;21.45;;;6.20;;
72413;SDS011;60995;52.154;4.498;2023-08-06T06:11:47;144.93;;;7.45;;
72413;SDS011;60995;52.154;4.498;2023-08-06T06:14:05;171.38;;;8.98;;
72413;SDS011;60995;52.154;4.498;2023-08-06T06:16:21;101.88;;;6.00;;
72413;SDS011;60995;52.154;4.498;2023-08-06T06:18:37;112.53;;;6.13;;
72413;SDS011;60995;52.154;4.498;2023-08-06T06:20:54;13.20;;;2.50;;
72413;SDS011;60995;52.154;4.498;2023-08-06T06:23:10;107.05;;;6.78;;
72413;SDS011;60995;52.154;4.498;2023-08-06T06:25:26;13.63;;;2.50;;
72413;SDS011;60995;52.154;4.498;2023-08-06T06:27:42;212.32;;;8.90;;
72413;SDS011;60995;52.154;4.498;2023-08-06T06:29:59;148.00;;;8.63;;
72413;SDS011;60995;52.154;4.498;2023-08-06T06:32:15;9.90;;;2.10;;
72413;SDS011;60995;52.154;4.498;2023-08-06T06:34:31;9.85;;;2.10;;
72413;SDS011;60995;52.154;4.498;2023-08-06T06:36:47;6.22;;;1.92;;
72413;SDS011;60995;52.154;4.498;2023-08-06T06:39:04;7.00;;;2.10;;
72413;SDS011;60995;52.154;4.498;2023-08-06T06:41:20;8.32;;;2.33;;
72413;SDS011;60995;52.154;4.498;2023-08-06T06:43:36;7.00;;;1.58;;
72413;SDS011;60995;52.154;4.498;2023-08-06T06:45:56;8.35;;;1.63;;
72413;SDS011;60995;52.154;4.498;2023-08-06T06:48:14;4.90;;;1.50;;
72413;SDS011;60995;52.154;4.498;2023-08-06T06:50:30;9.15;;;1.80;;
72413;SDS011;60995;52.154;4.498;2023-08-06T06:52:46;7.07;;;1.95;;
72413;SDS011;60995;52.154;4.498;2023-08-06T06:55:02;7.15;;;1.70;;
72413;SDS011;60995;52.154;4.498;2023-08-06T06:57:19;5.30;;;2.30;;
72413;SDS011;60995;52.154;4.498;2023-08-06T06:59:35;7.05;;;1.75;;
72413;SDS011;60995;52.154;4.498;2023-08-06T07:01:52;8.88;;;1.92;;
72413;SDS011;60995;52.154;4.498;2023-08-06T07:04:08;6.85;;;1.55;;
72413;SDS011;60995;52.154;4.498;2023-08-06T07:06:24;3.95;;;1.30;;
72413;SDS011;60995;52.154;4.498;2023-08-06T07:08:40;5.07;;;1.50;;
72413;SDS011;60995;52.154;4.498;2023-08-06T07:11:03;9.52;;;1.70;;
72413;SDS011;60995;52.154;4.498;2023-08-06T07:13:22;6.75;;;1.90;;
72413;SDS011;60995;52.154;4.498;2023-08-06T07:15:38;5.93;;;1.95;;
72413;SDS011;60995;52.154;4.498;2023-08-06T07:17:55;6.63;;;1.80;;
72413;SDS011;60995;52.154;4.498;2023-08-06T07:20:11;5.90;;;2.10;;
72413;SDS011;60995;52.154;4.498;2023-08-06T07:22:27;7.30;;;2.05;;
72413;SDS011;60995;52.154;4.498;2023-08-06T07:24:43;7.70;;;1.70;;
72413;SDS011;60995;52.154;4.498;2023-08-06T07:27:00;7.20;;;1.80;;
72413;SDS011;60995;52.154;4.498;2023-08-06T07:29:16;7.18;;;1.80;;
72413;SDS011;60995;52.154;4.498;2023-08-06T07:31:36;7.30;;;1.90;;
72413;SDS011;60995;52.154;4.498;2023-08-06T07:33:53;7.75;;;2.10;;
72413;SDS011;60995;52.154;4.498;2023-08-06T07:36:10;5.97;;;1.90;;
72413;SDS011;60995;52.154;4.498;2023-08-06T07:38:29;5.28;;;1.65;;
72413;SDS011;60995;52.154;4.498;2023-08-06T07:40:45;9.48;;;2.15;;
72413;SDS011;60995;52.154;4.498;2023-08-06T07:43:02;5.05;;;1.77;;
72413;SDS011;60995;52.154;4.498;2023-08-06T07:45:18;6.53;;;1.80;;
72413;SDS011;60995;52.154;4.498;2023-08-06T07:47:34;7.30;;;1.85;;
72413;SDS011;60995;52.154;4.498;2023-08-06T07:49:51;7.03;;;1.60;;
72413;SDS011;60995;52.154;4.498;2023-08-06T07:52:08;9.65;;;1.85;;
72413;SDS011;60995;52.154;4.498;2023-08-06T07:54:24;8.05;;;3.60;;
72413;SDS011;60995;52.154;4.498;2023-08-06T07:56:40;6.82;;;1.83;;
72413;SDS011;60995;52.154;4.498;2023-08-06T07:58:56;7.05;;;2.20;;
72413;SDS011;60995;52.154;4.498;2023-08-06T08:01:13;5.03;;;1.73;;
72413;SDS011;60995;52.154;4.498;2023-08-06T08:03:29;7.72;;;1.95;;
72413;SDS011;60995;52.154;4.498;2023-08-06T08:05:45;10.00;;;2.20;;
72413;SDS011;60995;52.154;4.498;2023-08-06T08:08:02;6.45;;;1.90;;
72413;SDS011;60995;52.154;4.498;2023-08-06T08:10:18;8.02;;;2.00;;
72413;SDS011;60995;52.154;4.498;2023-08-06T08:12:34;7.60;;;1.75;;
72413;SDS011;60995;52.154;4.498;2023-08-06T08:14:54;9.25;;;2.50;;
72413;SDS011;60995;52.154;4.498;2023-08-06T08:17:10;5.28;;;1.98;;
72413;SDS011;60995;52.154;4.498;2023-08-06T08:19:27;8.48;;;2.15;;
72413;SDS011;60995;52.154;4.498;2023-08-06T08:21:44;8.40;;;2.30;;
72413;SDS011;60995;52.154;4.498;2023-08-06T08:24:00;5.40;;;1.90;;
72413;SDS011;60995;52.154;4.498;2023-08-06T08:26:17;5.13;;;1.90;;
72413;SDS011;60995;52.154;4.498;2023-08-06T08:28:33;5.68;;;1.63;;
72413;SDS011;60995;52.154;4.498;2023-08-06T08:30:50;9.05;;;2.38;;
72413;SDS011;60995;52.154;4.498;2023-08-06T08:33:06;7.43;;;2.00;;
72413;SDS011;60995;52.154;4.498;2023-08-06T08:35:23;9.10;;;2.17;;
72413;SDS011;60995;52.154;4.498;2023-08-06T08:37:39;6.30;;;1.63;;
72413;SDS011;60995;52.154;4.498;2023-08-06T08:39:56;6.63;;;2.05;;
72413;SDS011;60995;52.154;4.498;2023-08-06T08:42:12;9.80;;;2.05;;
72413;SDS011;60995;52.154;4.498;2023-08-06T08:44:29;9.85;;;2.90;;
72413;SDS011;60995;52.154;4.498;2023-08-06T08:46:47;7.97;;;2.33;;
72413;SDS011;60995;52.154;4.498;2023-08-06T08:49:04;11.27;;;3.25;;
72413;SDS011;60995;52.154;4.498;2023-08-06T08:51:22;9.30;;;2.30;;
72413;SDS011;60995;52.154;4.498;2023-08-06T08:53:39;9.48;;;2.30;;
72413;SDS011;60995;52.154;4.498;2023-08-06T08:55:57;9.27;;;2.30;;
72413;SDS011;60995;52.154;4.498;2023-08-06T08:58:15;6.93;;;2.30;;
72413;SDS011;60995;52.154;4.498;2023-08-06T09:00:31;10.77;;;2.20;;
72413;SDS011;60995;52.154;4.498;2023-08-06T09:02:48;5.50;;;2.00;;
72413;SDS011;60995;52.154;4.498;2023-08-06T09:05:06;7.68;;;2.83;;
72413;SDS011;60995;52.154;4.498;2023-08-06T09:07:25;6.53;;;2.10;;
72413;SDS011;60995;52.154;4.498;2023-08-06T09:09:43;8.38;;;2.92;;
72413;SDS011;60995;52.154;4.498;2023-08-06T09:12:06;4.85;;;1.80;;
72413;SDS011;60995;52.154;4.498;2023-08-06T09:14:32;6.57;;;2.58;;
72413;SDS011;60995;52.154;4.498;2023-08-06T09:16:49;3.63;;;1.50;;
72413;SDS011;60995;52.154;4.498;2023-08-06T09:19:12;4.75;;;1.98;;
72413;SDS011;60995;52.154;4.498;2023-08-06T09:21:31;4.85;;;2.13;;
72413;SDS011;60995;52.154;4.498;2023-08-06T09:23:47;5.10;;;1.88;;
72413;SDS011;60995;52.154;4.498;2023-08-06T09:26:03;4.65;;;2.03;;
72413;SDS011;60995;52.154;4.498;2023-08-06T09:28:20;6.50;;;2.13;;
72413;SDS011;60995;52.154;4.498;2023-08-06T09:30:36;7.18;;;2.42;;
72413;SDS011;60995;52.154;4.498;2023-08-06T09:32:53;7.00;;;1.80;;
72413;SDS011;60995;52.154;4.498;2023-08-06T09:35:15;6.30;;;1.98;;
72413;SDS011;60995;52.154;4.498;2023-08-06T09:37:36;6.43;;;2.05;;
72413;SDS011;60995;52.154;4.498;2023-08-06T09:39:52;3.83;;;1.50;;
72413;SDS011;60995;52.154;4.498;2023-08-06T09:42:09;4.95;;;1.88;;
72413;SDS011;60995;52.154;4.498;2023-08-06T09:44:26;4.75;;;1.85;;
72413;SDS011;60995;52.154;4.498;2023-08-06T09:46:51;8.32;;;1.90;;
72413;SDS011;60995;52.154;4.498;2023-08-06T09:49:09;5.00;;;1.52;;
72413;SDS011;60995;52.154;4.498;2023-08-06T09:51:25;4.88;;;1.92;;
72413;SDS011;60995;52.154;4.498;2023-08-06T09:53:42;5.82;;;1.95;;
72413;SDS011;60995;52.154;4.498;2023-08-06T09:56:00;4.95;;;1.23;;
72413;SDS011;60995;52.154;4.498;2023-08-06T09:58:17;5.85;;;1.65;;
72413;SDS011;60995;52.154;4.498;2023-08-06T10:00:33;5.40;;;1.27;;
72413;SDS011;60995;52.154;4.498;2023-08-06T10:02:51;3.80;;;1.20;;
72413;SDS011;60995;52.154;4.498;2023-08-06T10:05:12;5.38;;;1.48;;
72413;SDS011;60995;52.154;4.498;2023-08-06T10:07:29;5.95;;;1.48;;
72413;SDS011;60995;52.154;4.498;2023-08-06T10:09:46;4.97;;;1.50;;
72413;SDS011;60995;52.154;4.498;2023-08-06T10:12:02;4.32;;;1.73;;
72413;SDS011;60995;52.154;4.498;2023-08-06T10:14:30;5.68;;;1.70;;
72413;SDS011;60995;52.154;4.498;2023-08-06T10:16:50;4.50;;;1.70;;
72413;SDS011;60995;52.154;4.498;2023-08-06T10:19:09;6.15;;;1.90;;
72413;SDS011;60995;52.154;4.498;2023-08-06T10:21:27;4.53;;;1.58;;
72413;SDS011;60995;52.154;4.498;2023-08-06T10:23:48;4.50;;;1.63;;
72413;SDS011;60995;52.154;4.498;2023-08-06T10:26:10;3.78;;;0.95;;
72413;SDS011;60995;52.154;4.498;2023-08-06T10:28:39;4.63;;;1.50;;
72413;SDS011;60995;52.154;4.498;2023-08-06T10:30:55;4.43;;;1.52;;
72413;SDS011;60995;52.154;4.498;2023-08-06T10:33:11;7.43;;;1.75;;
72413;SDS011;60995;52.154;4.498;2023-08-06T10:35:29;4.75;;;1.30;;
72413;SDS011;60995;52.154;4.498;2023-08-06T10:37:53;5.05;;;1.35;;
72413;SDS011;60995;52.154;4.498;2023-08-06T10:40:13;3.38;;;1.20;;
72413;SDS011;60995;52.154;4.498;2023-08-06T10:42:37;3.85;;;1.23;;
72413;SDS011;60995;52.154;4.498;2023-08-06T10:45:15;8.80;;;1.48;;
72413;SDS011;60995;52.154;4.498;2023-08-06T10:47:38;6.22;;;1.60;;
72413;SDS011;60995;52.154;4.498;2023-08-06T10:49:57;2.97;;;1.50;;
72413;SDS011;60995;52.154;4.498;2023-08-06T10:52:13;6.20;;;1.30;;
72413;SDS011;60995;52.154;4.498;2023-08-06T10:54:30;4.25;;;1.63;;
72413;SDS011;60995;52.154;4.498;2023-08-06T10:56:46;6.18;;;1.38;;
72413;SDS011;60995;52.154;4.498;2023-08-06T10:59:03;5.68;;;1.50;;
72413;SDS011;60995;52.154;4.498;2023-08-06T11:01:20;4.85;;;1.40;;
72413;SDS011;60995;52.154;4.498;2023-08-06T11:03:39;4.32;;;1.40;;
72413;SDS011;60995;52.154;4.498;2023-08-06T11:05:56;4.70;;;1.25;;
72413;SDS011;60995;52.154;4.498;2023-08-06T11:08:12;6.88;;;2.10;;
72413;SDS011;60995;52.154;4.498;2023-08-06T11:10:40;5.72;;;2.17;;
72413;SDS011;60995;52.154;4.498;2023-08-06T11:13:00;5.85;;;1.50;;
72413;SDS011;60995;52.154;4.498;2023-08-06T11:15:19;8.55;;;2.45;;
72413;SDS011;60995;52.154;4.498;2023-08-06T11:17:36;7.80;;;1.95;;
72413;SDS011;60995;52.154;4.498;2023-08-06T11:19:56;6.72;;;1.85;;
72413;SDS011;60995;52.154;4.498;2023-08-06T11:22:16;7.70;;;1.92;;
72413;SDS011;60995;52.154;4.498;2023-08-06T11:24:33;5.25;;;2.00;;
72413;SDS011;60995;52.154;4.498;2023-08-06T11:26:49;5.80;;;1.75;;
72413;SDS011;60995;52.154;4.498;2023-08-06T11:29:06;5.25;;;1.40;;
72413;SDS011;60995;52.154;4.498;2023-08-06T11:31:22;8.43;;;3.00;;
72413;SDS011;60995;52.154;4.498;2023-08-06T11:33:40;4.38;;;1.17;;
72413;SDS011;60995;52.154;4.498;2023-08-06T11:35:57;5.93;;;1.60;;
72413;SDS011;60995;52.154;4.498;2023-08-06T11:38:15;4.63;;;1.60;;
72413;SDS011;60995;52.154;4.498;2023-08-06T11:40:32;7.30;;;1.67;;
72413;SDS011;60995;52.154;4.498;2023-08-06T11:42:49;5.40;;;1.70;;
72413;SDS011;60995;52.154;4.498;2023-08-06T11:45:06;6.13;;;1.40;;
72413;SDS011;60995;52.154;4.498;2023-08-06T11:47:25;5.13;;;1.75;;
72413;SDS011;60995;52.154;4.498;2023-08-06T11:52:38;4.60;;;1.00;;
72413;SDS011;60995;52.154;4.498;2023-08-06T11:54:45;3.53;;;0.93;;
72413;SDS011;60995;52.154;4.498;2023-08-06T11:57:26;4.03;;;0.93;;
72413;SDS011;60995;52.154;4.498;2023-08-06T11:59:45;4.93;;;1.83;;
72413;SDS011;60995;52.154;4.498;2023-08-06T12:02:01;4.55;;;1.13;;
72413;SDS011;60995;52.154;4.498;2023-08-06T12:04:25;4.05;;;1.08;;
72413;SDS011;60995;52.154;4.498;2023-08-06T12:06:42;6.28;;;2.88;;
72413;SDS011;60995;52.154;4.498;2023-08-06T12:08:59;8.20;;;2.75;;
72413;SDS011;60995;52.154;4.498;2023-08-06T12:11:15;4.20;;;1.40;;
72413;SDS011;60995;52.154;4.498;2023-08-06T12:13:31;4.97;;;1.10;;
72413;SDS011;60995;52.154;4.498;2023-08-06T12:15:47;6.15;;;2.47;;
72413;SDS011;60995;52.154;4.498;2023-08-06T12:18:04;2.30;;;0.98;;
72413;SDS011;60995;52.154;4.498;2023-08-06T12:20:21;3.78;;;0.85;;
72413;SDS011;60995;52.154;4.498;2023-08-06T12:22:38;3.80;;;1.10;;
72413;SDS011;60995;52.154;4.498;2023-08-06T12:24:55;6.30;;;1.10;;
72413;SDS011;60995;52.154;4.498;2023-08-06T12:27:12;5.95;;;2.05;;
72413;SDS011;60995;52.154;4.498;2023-08-06T12:29:29;8.70;;;2.15;;
72413;SDS011;60995;52.154;4.498;2023-08-06T12:31:46;2.72;;;1.10;;
72413;SDS011;60995;52.154;4.498;2023-08-06T12:34:03;5.05;;;1.63;;
72413;SDS011;60995;52.154;4.498;2023-08-06T12:36:20;6.32;;;2.00;;
72413;SDS011;60995;52.154;4.498;2023-08-06T12:38:36;5.85;;;1.48;;
72413;SDS011;60995;52.154;4.498;2023-08-06T12:40:52;4.03;;;1.17;;
72413;SDS011;60995;52.154;4.498;2023-08-06T12:43:08;5.30;;;2.33;;
72413;SDS011;60995;52.154;4.498;2023-08-06T12:45:25;8.68;;;1.70;;
72413;SDS011;60995;52.154;4.498;2023-08-06T12:47:41;6.05;;;0.80;;
72413;SDS011;60995;52.154;4.498;2023-08-06T12:49:57;4.57;;;1.17;;
72413;SDS011;60995;52.154;4.498;2023-08-06T12:52:15;3.85;;;1.40;;
72413;SDS011;60995;52.154;4.498;2023-08-06T12:54:32;8.90;;;1.50;;
72413;SDS011;60995;52.154;4.498;2023-08-06T12:56:52;7.30;;;1.60;;
72413;SDS011;60995;52.154;4.498;2023-08-06T12:59:08;6.30;;;1.17;;
72413;SDS011;60995;52.154;4.498;2023-08-06T13:01:24;3.92;;;1.15;;
72413;SDS011;60995;52.154;4.498;2023-08-06T13:03:41;9.18;;;1.60;;
72413;SDS011;60995;52.154;4.498;2023-08-06T13:05:57;7.55;;;1.60;;
72413;SDS011;60995;52.154;4.498;2023-08-06T13:08:14;7.03;;;1.90;;
72413;SDS011;60995;52.154;4.498;2023-08-06T13:10:30;4.05;;;1.55;;
72413;SDS011;60995;52.154;4.498;2023-08-06T13:12:47;6.22;;;1.52;;
72413;SDS011;60995;52.154;4.498;2023-08-06T13:15:03;2.25;;;0.95;;
72413;SDS011;60995;52.154;4.498;2023-08-06T13:17:20;8.05;;;2.95;;
72413;SDS011;60995;52.154;4.498;2023-08-06T13:19:36;6.40;;;1.48;;
72413;SDS011;60995;52.154;4.498;2023-08-06T13:24:22;8.23;;;1.33;;
72413;SDS011;60995;52.154;4.498;2023-08-06T13:26:38;9.05;;;1.50;;
72413;SDS011;60995;52.154;4.498;2023-08-06T13:28:56;13.65;;;2.42;;
72413;SDS011;60995;52.154;4.498;2023-08-06T13:31:14;13.55;;;2.95;;
72413;SDS011;60995;52.154;4.498;2023-08-06T13:33:30;11.30;;;2.17;;
72413;SDS011;60995;52.154;4.498;2023-08-06T13:35:46;12.20;;;1.90;;
72413;SDS011;60995;52.154;4.498;2023-08-06T13:38:03;13.02;;;1.80;;
72413;SDS011;60995;52.154;4.498;2023-08-06T13:40:19;15.40;;;1.83;;
72413;SDS011;60995;52.154;4.498;2023-08-06T13:42:35;12.32;;;2.00;;
72413;SDS011;60995;52.154;4.498;2023-08-06T13:44:52;11.50;;;1.70;;
72413;SDS011;60995;52.154;4.498;2023-08-06T13:47:08;12.90;;;2.55;;
72413;SDS011;60995;52.154;4.498;2023-08-06T13:49:24;13.70;;;4.03;;
72413;SDS011;60995;52.154;4.498;2023-08-06T13:51:41;12.43;;;1.58;;
72413;SDS011;60995;52.154;4.498;2023-08-06T13:53:57;10.75;;;1.88;;